createdAt,value
2019-01-05T00:02:15.762Z,1.54
2019-01-05T00:07:24.187Z,2.74
2019-01-05T00:12:31.810Z,1.95
2019-01-05T00:17:39.594Z,2.10
2019-01-05T00:22:47.382Z,3.27
2019-01-05T00:27:55.050Z,2.41
2019-01-05T00:33:02.705Z,1.79
2019-01-05T00:38:10.406Z,2.59
2019-01-05T00:43:18.050Z,3.53
2019-01-05T00:48:25.746Z,3.49
2019-01-05T00:53:33.389Z,4.25
2019-01-05T00:58:40.997Z,3.78
2019-01-05T01:03:48.759Z,4.86
2019-01-05T01:08:56.473Z,2.97
2019-01-05T01:14:04.239Z,2.68
2019-01-05T01:19:11.851Z,3.86
2019-01-05T01:24:19.644Z,3.16
2019-01-05T01:29:27.531Z,6.30
2019-01-05T01:34:35.211Z,10.35
2019-01-05T01:39:42.937Z,8.56
2019-01-05T01:44:50.623Z,9.33
2019-01-05T01:49:58.258Z,11.01
2019-01-05T01:55:06.006Z,14.33
2019-01-05T02:00:13.758Z,11.91
2019-01-05T02:05:21.457Z,12.03
2019-01-05T02:10:29.121Z,15.29
2019-01-05T02:15:36.910Z,12.65
2019-01-05T02:20:44.662Z,9.58
2019-01-05T02:25:52.409Z,8.01
2019-01-05T02:31:00.055Z,9.43
2019-01-05T02:36:07.825Z,10.59
2019-01-05T02:41:15.619Z,7.46
2019-01-05T02:46:23.454Z,7.55
2019-01-05T02:51:31.152Z,6.33
2019-01-05T02:56:38.926Z,6.33
2019-01-05T03:01:46.593Z,7.34
2019-01-05T03:06:54.339Z,9.35
2019-01-05T03:12:01.928Z,11.26
2019-01-05T03:17:09.701Z,10.89
2019-01-05T03:22:17.396Z,13.86
2019-01-05T03:27:25.131Z,17.51
2019-01-05T03:32:32.884Z,10.55
2019-01-05T03:37:40.502Z,10.79
2019-01-05T03:42:48.146Z,11.39
2019-01-05T03:47:55.780Z,7.04
2019-01-05T03:53:03.482Z,7.62
2019-01-05T03:58:11.288Z,7.37
2019-01-05T04:03:18.999Z,6.26
2019-01-05T04:08:26.633Z,3.22
2019-01-05T04:13:34.320Z,3.57
2019-01-05T04:18:42.058Z,5.14
2019-01-05T04:23:49.761Z,4.79
2019-01-05T04:28:57.530Z,4.60
2019-01-05T04:34:05.166Z,7.02
2019-01-05T04:39:12.865Z,7.82
2019-01-05T04:44:20.491Z,9.99
2019-01-05T04:49:28.232Z,11.97
2019-01-05T04:54:35.874Z,12.56
2019-01-05T04:59:43.756Z,13.61
2019-01-05T05:04:51.569Z,16.08
2019-01-05T05:09:59.253Z,19.71
2019-01-05T05:15:06.995Z,16.49
2019-01-05T05:20:14.712Z,18.18
2019-01-05T05:25:22.502Z,20.15
2019-01-05T05:30:30.309Z,20.17
2019-01-05T05:35:37.882Z,19.75
2019-01-05T05:40:45.801Z,23.05
2019-01-05T05:45:53.491Z,24.48
2019-01-05T05:51:01.188Z,27.90
2019-01-05T05:56:08.919Z,25.78
2019-01-05T06:01:16.570Z,24.20
2019-01-05T06:06:24.182Z,23.78
2019-01-05T06:11:31.909Z,21.59
2019-01-05T06:16:39.743Z,22.43
2019-01-05T06:21:47.403Z,23.30
2019-01-05T06:26:55.129Z,18.59
2019-01-05T06:32:02.811Z,25.57
2019-01-05T06:37:10.523Z,25.01
2019-01-05T06:42:18.198Z,22.24
2019-01-05T06:47:25.901Z,20.19
2019-01-05T06:52:33.470Z,20.15
2019-01-05T06:57:41.425Z,18.69
2019-01-05T07:02:49.246Z,17.14
2019-01-05T07:07:56.899Z,18.27
2019-01-05T07:13:04.817Z,15.39
2019-01-05T07:18:12.454Z,15.79
2019-01-05T07:23:20.229Z,13.06
2019-01-05T07:28:27.889Z,13.57
2019-01-05T07:33:35.702Z,13.48
2019-01-05T07:38:43.407Z,10.34
2019-01-05T07:43:51.225Z,11.61
2019-01-05T07:48:58.838Z,11.29
2019-01-05T07:54:06.492Z,10.54
2019-01-05T07:59:14.114Z,10.63
2019-01-05T08:04:21.805Z,9.68
2019-01-05T08:09:29.534Z,9.11
2019-01-05T08:14:37.511Z,8.12
2019-01-05T08:19:45.290Z,11.01
2019-01-05T08:24:53.054Z,8.58
2019-01-05T08:30:00.725Z,7.58
2019-01-05T08:35:08.598Z,5.67
2019-01-05T08:40:16.198Z,7.51
2019-01-05T08:45:23.966Z,8.03
2019-01-05T08:50:31.557Z,6.45
2019-01-05T08:55:39.218Z,7.11
2019-01-05T09:00:47.009Z,8.07
2019-01-05T09:05:54.678Z,5.04
2019-01-05T09:11:02.302Z,7.28
2019-01-05T09:16:10.166Z,6.87
2019-01-05T09:21:17.850Z,6.78
2019-01-05T09:26:25.562Z,9.46
2019-01-05T09:31:33.299Z,8.12
2019-01-05T09:36:41.094Z,7.89
2019-01-05T09:41:48.962Z,8.85
2019-01-05T09:46:57.638Z,8.24
2019-01-05T09:52:05.382Z,8.06
2019-01-05T09:57:13.173Z,8.01
2019-01-05T10:02:20.929Z,7.15
2019-01-05T10:07:28.618Z,7.10
2019-01-05T10:12:36.364Z,9.83
2019-01-05T10:17:44.977Z,6.17
2019-01-05T10:24:13.949Z,8.26
2019-01-05T10:29:11.640Z,9.41
2019-01-05T10:34:19.262Z,6.52
2019-01-05T10:39:26.936Z,6.67
2019-01-05T10:44:34.720Z,7.46
2019-01-05T10:49:42.401Z,8.31
2019-01-05T10:54:50.402Z,7.00
2019-01-05T10:59:58.182Z,4.83
2019-01-05T11:05:06.025Z,7.10
2019-01-05T11:10:13.818Z,7.11
2019-01-05T11:15:21.441Z,8.85
2019-01-05T11:20:35.564Z,8.40
2019-01-05T11:25:38.257Z,9.57
2019-01-05T11:30:45.829Z,7.63
2019-01-05T11:35:53.801Z,9.64
2019-01-05T11:41:01.590Z,8.34
2019-01-05T11:46:09.537Z,6.38
2019-01-05T11:51:17.294Z,5.76
2019-01-05T11:56:25.073Z,6.70
2019-01-05T12:01:32.705Z,6.75
2019-01-05T12:06:40.379Z,5.18
2019-01-05T12:11:50.009Z,5.51
2019-01-05T12:17:01.324Z,6.00
2019-01-05T12:22:00.302Z,4.45
2019-01-05T12:27:08.078Z,3.87
2019-01-05T12:32:15.770Z,4.53
2019-01-05T12:37:23.561Z,3.43
2019-01-05T12:42:31.489Z,4.22
2019-01-05T12:47:39.368Z,4.59
2019-01-05T12:52:47.137Z,4.97
2019-01-05T12:57:54.821Z,5.20
2019-01-05T13:03:02.686Z,3.90
2019-01-05T13:08:10.409Z,3.17
2019-01-05T13:13:17.986Z,8.84
2019-01-05T13:18:26.674Z,2.64
2019-01-05T13:23:34.418Z,3.38
2019-01-05T13:28:42.438Z,3.65
2019-01-05T13:33:50.134Z,2.84
2019-01-05T13:38:59.025Z,2.69
2019-01-05T13:44:06.717Z,4.16
2019-01-05T13:49:14.343Z,6.06
2019-01-05T13:54:22.045Z,3.96
2019-01-05T13:59:30.050Z,4.07
2019-01-05T14:04:39.025Z,2.78
2019-01-05T14:09:46.772Z,2.76
2019-01-05T14:14:54.704Z,3.38
2019-01-05T14:20:11.963Z,3.64
2019-01-05T14:25:08.631Z,3.26
2019-01-05T14:30:16.512Z,3.13
2019-01-05T14:35:26.041Z,3.64
2019-01-05T14:40:34.922Z,5.69
2019-01-05T14:45:42.545Z,3.71
2019-01-05T14:50:52.018Z,5.08
2019-01-05T14:56:00.888Z,3.49
2019-01-05T15:01:08.711Z,4.71
2019-01-05T15:06:16.542Z,4.58
2019-01-05T15:11:24.274Z,3.44
2019-01-05T15:16:32.290Z,5.19
2019-01-05T15:21:39.969Z,4.92
2019-01-05T15:56:49.953Z,5.85
2019-01-05T16:03:05.346Z,5.62
2019-01-05T16:08:13.017Z,4.10
2019-01-05T16:13:21.753Z,4.02
2019-01-05T16:18:28.756Z,5.27
2019-01-05T16:23:37.806Z,3.90
2019-01-05T16:28:44.400Z,3.60
2019-01-05T16:33:52.096Z,3.68
2019-01-05T16:39:00.378Z,4.68
2019-01-05T16:44:11.221Z,3.27
2019-01-05T16:49:08.853Z,3.90
2019-01-05T16:54:16.522Z,5.31
2019-01-05T16:59:24.203Z,3.58
2019-01-05T17:04:31.943Z,4.14
2019-01-05T17:09:39.781Z,5.43
2019-01-05T17:14:47.427Z,7.27
2019-01-05T17:19:55.063Z,5.53
2019-01-05T17:25:02.693Z,5.42
2019-01-05T17:30:10.496Z,4.06
2019-01-05T17:35:19.690Z,5.88
2019-01-05T17:40:28.170Z,6.74
2019-01-05T17:45:35.981Z,5.70
2019-01-05T17:50:43.763Z,6.74
2019-01-05T17:55:51.490Z,4.50
2019-01-05T18:00:59.357Z,4.48
2019-01-05T18:06:06.936Z,4.69
2019-01-05T18:11:14.633Z,5.28
2019-01-05T18:16:22.422Z,7.33
2019-01-05T18:21:30.229Z,5.12
2019-01-05T18:26:37.866Z,4.17
2019-01-05T18:31:45.637Z,5.04
2019-01-05T18:36:53.452Z,3.71
2019-01-05T18:42:01.532Z,6.02
2019-01-05T18:47:10.181Z,4.39
2019-01-05T18:52:24.869Z,4.77
2019-01-05T18:57:25.311Z,3.48
2019-01-05T19:02:33.037Z,3.01
2019-01-05T19:07:40.921Z,5.25
2019-01-05T19:12:48.591Z,4.89
2019-01-05T19:17:56.340Z,4.55
2019-01-05T19:23:04.002Z,3.66
2019-01-05T19:28:11.756Z,2.98
2019-01-05T19:33:19.352Z,3.95
2019-01-05T19:38:27.099Z,4.01
2019-01-05T19:43:35.883Z,4.25
2019-01-05T19:48:43.697Z,3.64
2019-01-05T19:53:51.465Z,2.55
2019-01-05T19:58:59.238Z,4.75
2019-01-05T20:04:07.047Z,3.31
2019-01-05T20:09:15.042Z,4.21
2019-01-05T20:14:22.997Z,4.29
2019-01-05T20:19:31.273Z,6.16
2019-01-05T20:24:39.896Z,6.08
2019-01-05T20:29:48.351Z,4.89
2019-01-05T20:34:56.935Z,4.45
2019-01-05T20:40:04.940Z,3.52
2019-01-05T20:45:12.942Z,3.17
2019-01-05T20:50:20.870Z,2.94
2019-01-05T20:55:28.673Z,2.31
2019-01-05T21:00:36.286Z,2.22
2019-01-05T21:05:44.167Z,2.37
2019-01-05T21:10:52.423Z,2.32
2019-01-05T21:16:00.140Z,2.41
2019-01-05T21:21:07.828Z,2.15
2019-01-05T21:26:15.782Z,2.92
2019-01-05T21:31:23.650Z,2.21
2019-01-05T21:36:32.422Z,2.32
2019-01-05T21:41:40.193Z,2.12
2019-01-05T21:46:52.727Z,2.52
2019-01-05T21:51:50.314Z,2.53
2019-01-05T21:56:58.117Z,2.89
2019-01-05T22:02:05.825Z,2.58
2019-01-05T22:07:13.599Z,2.66
2019-01-05T22:12:21.369Z,1.83
2019-01-05T22:17:29.487Z,1.79
2019-01-05T22:22:37.179Z,2.51
2019-01-05T22:27:44.978Z,2.49
2019-01-05T22:32:52.730Z,2.95
2019-01-05T22:38:01.604Z,3.29
2019-01-05T22:43:11.135Z,2.31
2019-01-05T22:48:18.787Z,3.01
2019-01-05T22:53:26.574Z,2.91
2019-01-05T22:58:34.429Z,4.68
2019-01-05T23:03:42.229Z,2.99
2019-01-05T23:08:49.982Z,3.69
2019-01-05T23:13:57.583Z,2.32
2019-01-05T23:19:05.485Z,3.08
2019-01-05T23:24:13.070Z,2.84
2019-01-05T23:29:20.949Z,2.21
2019-01-05T23:34:28.627Z,2.04
2019-01-05T23:39:36.340Z,1.97
2019-01-05T23:44:43.981Z,2.23
2019-01-05T23:49:51.779Z,1.92
2019-01-05T23:54:59.553Z,3.93
